sensor_id;sensor_type;location;lat;lon;timestamp;pressure;altitude;pressure_sealevel;temperature;humidity
12471;BME280;36499;46.484;13.832;2023-03-14T00:02:15;92253.03;;;12.97;54.96
12471;BME280;36499;46.484;13.832;2023-03-14T00:04:42;92246.75;;;13.20;54.55
12471;BME280;36499;46.484;13.832;2023-03-14T00:07:11;92251.03;;;13.36;54.21
12471;BME280;36499;46.484;13.832;2023-03-14T00:09:38;92243.34;;;13.24;54.23
12471;BME280;36499;46.484;13.832;2023-03-14T00:12:06;92252.94;;;13.14;54.59
12471;BME280;36499;46.484;13.832;2023-03-14T00:14:34;92237.25;;;13.14;54.41
12471;BME280;36499;46.484;13.832;2023-03-14T00:17:01;92235.44;;;13.14;54.64
12471;BME280;36499;46.484;13.832;2023-03-14T00:19:29;92226.91;;;13.29;54.20
12471;BME280;36499;46.484;13.832;2023-03-14T00:21:56;92200.91;;;13.17;54.82
12471;BME280;36499;46.484;13.832;2023-03-14T00:24:23;92191.56;;;12.99;55.36
12471;BME280;36499;46.484;13.832;2023-03-14T00:26:50;92195.97;;;12.94;55.38
12471;BME280;36499;46.484;13.832;2023-03-14T00:29:17;92204.16;;;13.03;55.41
12471;BME280;36499;46.484;13.832;2023-03-14T00:31:44;92201.75;;;13.28;54.79
12471;BME280;36499;46.484;13.832;2023-03-14T00:34:11;92210.97;;;13.30;54.80
12471;BME280;36499;46.484;13.832;2023-03-14T00:36:40;92205.56;;;13.47;54.59
12471;BME280;36499;46.484;13.832;2023-03-14T00:39:07;92208.41;;;13.40;54.52
12471;BME280;36499;46.484;13.832;2023-03-14T00:41:34;92194.25;;;13.36;54.89
12471;BME280;36499;46.484;13.832;2023-03-14T00:44:01;92188.91;;;13.58;54.49
12471;BME280;36499;46.484;13.832;2023-03-14T00:46:28;92194.34;;;13.47;55.28
12471;BME280;36499;46.484;13.832;2023-03-14T00:48:55;92206.78;;;13.03;56.47
12471;BME280;36499;46.484;13.832;2023-03-14T00:51:22;92186.06;;;11.99;59.69
12471;BME280;36499;46.484;13.832;2023-03-14T00:53:50;92178.19;;;11.94;60.43
12471;BME280;36499;46.484;13.832;2023-03-14T00:56:17;92188.81;;;12.09;60.13
12471;BME280;36499;46.484;13.832;2023-03-14T00:58:45;92191.97;;;11.89;60.49
12471;BME280;36499;46.484;13.832;2023-03-14T01:01:15;92181.91;;;11.98;60.71
12471;BME280;36499;46.484;13.832;2023-03-14T01:03:43;92177.41;;;11.93;60.67
12471;BME280;36499;46.484;13.832;2023-03-14T01:06:13;92177.63;;;11.92;61.12
12471;BME280;36499;46.484;13.832;2023-03-14T01:08:41;92168.47;;;11.89;60.68
12471;BME280;36499;46.484;13.832;2023-03-14T01:11:13;92173.44;;;11.91;60.85
12471;BME280;36499;46.484;13.832;2023-03-14T01:13:41;92168.50;;;11.73;61.47
12471;BME280;36499;46.484;13.832;2023-03-14T01:16:10;92161.38;;;11.68;61.89
12471;BME280;36499;46.484;13.832;2023-03-14T01:18:39;92162.34;;;11.79;61.59
12471;BME280;36499;46.484;13.832;2023-03-14T01:21:14;92171.44;;;11.76;61.62
12471;BME280;36499;46.484;13.832;2023-03-14T01:23:42;92142.06;;;11.47;63.23
12471;BME280;36499;46.484;13.832;2023-03-14T01:26:14;92143.88;;;11.69;62.26
12471;BME280;36499;46.484;13.832;2023-03-14T01:28:41;92141.22;;;11.64;62.17
12471;BME280;36499;46.484;13.832;2023-03-14T01:31:10;92131.81;;;11.63;62.84
12471;BME280;36499;46.484;13.832;2023-03-14T01:33:38;92138.13;;;11.67;62.41
12471;BME280;36499;46.484;13.832;2023-03-14T01:36:07;92135.53;;;11.67;62.48
12471;BME280;36499;46.484;13.832;2023-03-14T01:38:37;92121.16;;;11.86;61.58
12471;BME280;36499;46.484;13.832;2023-03-14T01:41:07;92112.69;;;12.00;61.17
12471;BME280;36499;46.484;13.832;2023-03-14T01:43:35;92112.97;;;11.61;62.65
12471;BME280;36499;46.484;13.832;2023-03-14T01:46:25;92106.22;;;11.43;63.68
12471;BME280;36499;46.484;13.832;2023-03-14T01:49:02;92106.13;;;11.54;62.96
12471;BME280;36499;46.484;13.832;2023-03-14T01:51:36;92100.81;;;11.28;63.82
12471;BME280;36499;46.484;13.832;2023-03-14T01:54:12;92095.31;;;11.46;63.73
12471;BME280;36499;46.484;13.832;2023-03-14T01:56:45;92082.03;;;11.47;63.49
12471;BME280;36499;46.484;13.832;2023-03-14T01:59:14;92080.94;;;11.43;63.58
12471;BME280;36499;46.484;13.832;2023-03-14T02:01:44;92088.50;;;11.23;63.93
12471;BME280;36499;46.484;13.832;2023-03-14T02:04:14;92070.84;;;11.30;64.21
12471;BME280;36499;46.484;13.832;2023-03-14T02:06:50;92062.19;;;11.08;65.81
12471;BME280;36499;46.484;13.832;2023-03-14T02:09:19;92062.81;;;11.15;64.90
12471;BME280;36499;46.484;13.832;2023-03-14T02:11:47;92066.53;;;11.19;65.39
12471;BME280;36499;46.484;13.832;2023-03-14T02:14:28;92049.06;;;11.20;65.66
12471;BME280;36499;46.484;13.832;2023-03-14T02:16:56;92031.63;;;11.03;66.19
12471;BME280;36499;46.484;13.832;2023-03-14T02:19:46;92049.88;;;11.03;66.24
12471;BME280;36499;46.484;13.832;2023-03-14T02:22:16;92039.59;;;11.14;65.94
12471;BME280;36499;46.484;13.832;2023-03-14T02:24:51;92027.75;;;11.06;66.66
12471;BME280;36499;46.484;13.832;2023-03-14T02:27:25;92030.53;;;10.99;67.08
12471;BME280;36499;46.484;13.832;2023-03-14T02:29:57;92018.91;;;11.07;66.32
12471;BME280;36499;46.484;13.832;2023-03-14T02:32:29;92000.41;;;11.08;66.62
12471;BME280;36499;46.484;13.832;2023-03-14T02:35:00;92012.94;;;10.90;67.45
12471;BME280;36499;46.484;13.832;2023-03-14T02:37:35;92011.66;;;10.92;67.50
12471;BME280;36499;46.484;13.832;2023-03-14T02:40:04;91987.66;;;10.90;67.43
12471;BME280;36499;46.484;13.832;2023-03-14T02:42:34;91970.91;;;10.86;68.04
12471;BME280;36499;46.484;13.832;2023-03-14T02:45:39;91965.00;;;10.74;69.19
12471;BME280;36499;46.484;13.832;2023-03-14T02:48:14;91934.31;;;10.59;70.11
12471;BME280;36499;46.484;13.832;2023-03-14T02:50:43;91932.13;;;10.51;70.70
12471;BME280;36499;46.484;13.832;2023-03-14T02:53:17;91933.72;;;10.52;71.23
12471;BME280;36499;46.484;13.832;2023-03-14T02:55:46;91950.69;;;10.55;71.80
12471;BME280;36499;46.484;13.832;2023-03-14T02:58:16;91992.78;;;10.47;72.73
12471;BME280;36499;46.484;13.832;2023-03-14T03:00:43;91964.91;;;10.47;72.60
12471;BME280;36499;46.484;13.832;2023-03-14T03:03:10;91994.03;;;10.44;73.46
12471;BME280;36499;46.484;13.832;2023-03-14T03:05:38;91988.22;;;10.37;73.65
12471;BME280;36499;46.484;13.832;2023-03-14T03:08:06;91986.78;;;10.46;73.80
12471;BME280;36499;46.484;13.832;2023-03-14T03:10:33;91967.28;;;10.49;73.72
12471;BME280;36499;46.484;13.832;2023-03-14T03:13:00;91963.72;;;10.55;73.34
12471;BME280;36499;46.484;13.832;2023-03-14T03:15:29;91982.34;;;10.64;73.32
12471;BME280;36499;46.484;13.832;2023-03-14T03:17:56;91956.06;;;10.48;75.42
12471;BME280;36499;46.484;13.832;2023-03-14T03:20:23;91975.81;;;10.44;75.63
12471;BME280;36499;46.484;13.832;2023-03-14T03:22:51;91958.81;;;10.58;74.80
12471;BME280;36499;46.484;13.832;2023-03-14T03:25:18;91982.81;;;10.61;75.48
12471;BME280;36499;46.484;13.832;2023-03-14T03:27:45;91976.47;;;10.18;77.67
12471;BME280;36499;46.484;13.832;2023-03-14T03:30:13;91990.72;;;10.49;77.03
12471;BME280;36499;46.484;13.832;2023-03-14T03:32:42;91969.50;;;10.40;77.72
12471;BME280;36499;46.484;13.832;2023-03-14T03:35:09;91955.31;;;10.15;78.35
12471;BME280;36499;46.484;13.832;2023-03-14T03:37:37;91984.81;;;10.37;77.55
12471;BME280;36499;46.484;13.832;2023-03-14T03:40:06;91962.25;;;10.42;77.72
12471;BME280;36499;46.484;13.832;2023-03-14T03:42:34;91945.34;;;10.28;78.42
12471;BME280;36499;46.484;13.832;2023-03-14T03:45:02;91963.56;;;10.45;78.11
12471;BME280;36499;46.484;13.832;2023-03-14T03:47:31;91947.25;;;10.33;79.10
12471;BME280;36499;46.484;13.832;2023-03-14T03:49:59;91955.34;;;10.53;77.87
12471;BME280;36499;46.484;13.832;2023-03-14T03:52:26;91952.19;;;10.51;78.79
12471;BME280;36499;46.484;13.832;2023-03-14T03:54:53;91954.16;;;9.94;81.09
12471;BME280;36499;46.484;13.832;2023-03-14T03:57:20;91932.41;;;10.00;81.28
12471;BME280;36499;46.484;13.832;2023-03-14T03:59:47;91940.22;;;10.33;80.03
12471;BME280;36499;46.484;13.832;2023-03-14T04:02:15;91923.00;;;10.49;78.68
12471;BME280;36499;46.484;13.832;2023-03-14T04:04:42;91923.91;;;10.59;77.97
12471;BME280;36499;46.484;13.832;2023-03-14T04:07:10;91955.19;;;10.43;79.57
12471;BME280;36499;46.484;13.832;2023-03-14T04:09:39;91939.06;;;10.63;77.83
12471;BME280;36499;46.484;13.832;2023-03-14T04:12:06;91925.00;;;10.64;77.80
12471;BME280;36499;46.484;13.832;2023-03-14T04:14:33;91907.69;;;10.36;79.81
12471;BME280;36499;46.484;13.832;2023-03-14T04:17:01;91887.91;;;10.56;79.32
12471;BME280;36499;46.484;13.832;2023-03-14T04:19:28;91930.13;;;10.58;78.26
12471;BME280;36499;46.484;13.832;2023-03-14T04:21:55;91914.47;;;10.53;79.35
12471;BME280;36499;46.484;13.832;2023-03-14T04:24:24;91893.16;;;10.62;78.94
12471;BME280;36499;46.484;13.832;2023-03-14T04:26:51;91894.16;;;10.55;78.83
12471;BME280;36499;46.484;13.832;2023-03-14T04:29:18;91882.22;;;10.59;79.02
12471;BME280;36499;46.484;13.832;2023-03-14T04:31:45;91871.09;;;10.47;79.98
12471;BME280;36499;46.484;13.832;2023-03-14T04:34:12;91895.13;;;10.71;78.99
12471;BME280;36499;46.484;13.832;2023-03-14T04:36:39;91896.09;;;10.65;78.82
12471;BME280;36499;46.484;13.832;2023-03-14T04:39:06;91900.25;;;10.66;78.87
12471;BME280;36499;46.484;13.832;2023-03-14T04:41:35;91911.84;;;10.75;78.61
12471;BME280;36499;46.484;13.832;2023-03-14T04:44:02;91897.50;;;10.73;79.60
12471;BME280;36499;46.484;13.832;2023-03-14T04:46:29;91858.34;;;10.68;78.18
12471;BME280;36499;46.484;13.832;2023-03-14T04:48:56;91862.44;;;10.85;77.33
12471;BME280;36499;46.484;13.832;2023-03-14T04:51:23;91842.38;;;11.13;76.63
12471;BME280;36499;46.484;13.832;2023-03-14T04:53:53;91835.94;;;11.20;73.69
12471;BME280;36499;46.484;13.832;2023-03-14T04:56:21;91844.09;;;11.55;73.24
12471;BME280;36499;46.484;13.832;2023-03-14T04:58:49;91857.88;;;11.51;70.57
12471;BME280;36499;46.484;13.832;2023-03-14T05:01:16;91839.13;;;11.86;71.98
12471;BME280;36499;46.484;13.832;2023-03-14T05:03:44;91824.72;;;11.83;72.64
12471;BME280;36499;46.484;13.832;2023-03-14T05:06:11;91798.81;;;11.72;73.02
12471;BME280;36499;46.484;13.832;2023-03-14T05:08:38;91784.06;;;11.55;73.87
12471;BME280;36499;46.484;13.832;2023-03-14T05:11:05;91759.97;;;11.80;72.63
12471;BME280;36499;46.484;13.832;2023-03-14T05:13:33;91788.19;;;11.51;72.25
12471;BME280;36499;46.484;13.832;2023-03-14T05:16:07;91790.13;;;11.34;73.39
12471;BME280;36499;46.484;13.832;2023-03-14T05:18:34;91746.41;;;11.46;73.06
12471;BME280;36499;46.484;13.832;2023-03-14T05:21:02;91767.88;;;11.59;71.78
12471;BME280;36499;46.484;13.832;2023-03-14T05:23:30;91797.28;;;11.49;73.55
12471;BME280;36499;46.484;13.832;2023-03-14T05:25:57;91791.78;;;11.40;73.00
12471;BME280;36499;46.484;13.832;2023-03-14T05:28:24;91784.78;;;11.51;75.04
12471;BME280;36499;46.484;13.832;2023-03-14T05:30:51;91780.84;;;11.80;73.76
12471;BME280;36499;46.484;13.832;2023-03-14T05:33:20;91754.09;;;11.63;75.06
12471;BME280;36499;46.484;13.832;2023-03-14T05:35:47;91764.75;;;11.25;77.41
12471;BME280;36499;46.484;13.832;2023-03-14T05:38:14;91785.78;;;11.13;78.08
12471;BME280;36499;46.484;13.832;2023-03-14T05:40:41;91801.69;;;11.12;77.75
12471;BME280;36499;46.484;13.832;2023-03-14T05:43:08;91814.47;;;10.86;76.55
12471;BME280;36499;46.484;13.832;2023-03-14T05:45:35;91809.50;;;11.12;76.73
12471;BME280;36499;46.484;13.832;2023-03-14T05:48:03;91808.97;;;11.10;77.26
12471;BME280;36499;46.484;13.832;2023-03-14T05:50:31;91803.63;;;11.26;76.39
12471;BME280;36499;46.484;13.832;2023-03-14T05:52:58;91784.34;;;11.27;77.72
12471;BME280;36499;46.484;13.832;2023-03-14T05:55:25;91842.47;;;11.23;78.32
12471;BME280;36499;46.484;13.832;2023-03-14T05:57:53;91808.25;;;11.19;78.76
12471;BME280;36499;46.484;13.832;2023-03-14T06:00:22;91782.94;;;11.15;79.55
12471;BME280;36499;46.484;13.832;2023-03-14T06:02:49;91750.78;;;10.77;81.99
12471;BME280;36499;46.484;13.832;2023-03-14T06:05:16;91747.06;;;10.73;82.13
12471;BME280;36499;46.484;13.832;2023-03-14T06:07:45;91767.31;;;10.88;81.32
12471;BME280;36499;46.484;13.832;2023-03-14T06:10:12;91787.13;;;10.89;81.34
12471;BME280;36499;46.484;13.832;2023-03-14T06:12:39;91789.22;;;10.92;81.24
12471;BME280;36499;46.484;13.832;2023-03-14T06:15:07;91776.53;;;11.00;81.11
12471;BME280;36499;46.484;13.832;2023-03-14T06:17:35;91798.69;;;10.98;81.38
12471;BME280;36499;46.484;13.832;2023-03-14T06:20:02;91795.78;;;10.94;81.19
12471;BME280;36499;46.484;13.832;2023-03-14T06:22:29;91795.28;;;10.97;81.78
12471;BME280;36499;46.484;13.832;2023-03-14T06:24:57;91772.06;;;10.96;82.09
12471;BME280;36499;46.484;13.832;2023-03-14T06:27:25;91791.41;;;11.00;82.06
12471;BME280;36499;46.484;13.832;2023-03-14T06:29:52;91809.47;;;10.80;83.08
12471;BME280;36499;46.484;13.832;2023-03-14T06:32:19;91747.50;;;10.92;82.82
12471;BME280;36499;46.484;13.832;2023-03-14T06:34:46;91765.28;;;10.95;82.82
12471;BME280;36499;46.484;13.832;2023-03-14T06:37:13;91780.88;;;10.90;83.33
12471;BME280;36499;46.484;13.832;2023-03-14T06:39:40;91763.66;;;10.89;83.79
12471;BME280;36499;46.484;13.832;2023-03-14T06:42:11;91787.75;;;10.74;82.28
12471;BME280;36499;46.484;13.832;2023-03-14T06:44:38;91746.25;;;10.94;78.87
12471;BME280;36499;46.484;13.832;2023-03-14T06:47:05;91728.41;;;11.13;77.55
12471;BME280;36499;46.484;13.832;2023-03-14T06:49:32;91756.66;;;11.26;76.61
12471;BME280;36499;46.484;13.832;2023-03-14T06:51:59;91792.44;;;11.26;74.83
12471;BME280;36499;46.484;13.832;2023-03-14T06:54:26;91775.72;;;11.27;74.67
12471;BME280;36499;46.484;13.832;2023-03-14T06:56:53;91760.84;;;11.22;76.13
12471;BME280;36499;46.484;13.832;2023-03-14T06:59:21;91774.13;;;11.21;73.73
12471;BME280;36499;46.484;13.832;2023-03-14T07:01:49;91769.47;;;11.28;74.58
12471;BME280;36499;46.484;13.832;2023-03-14T07:04:16;91773.94;;;11.00;76.36
12471;BME280;36499;46.484;13.832;2023-03-14T07:06:44;91763.91;;;11.14;75.46
12471;BME280;36499;46.484;13.832;2023-03-14T07:09:12;91747.84;;;11.00;74.71
12471;BME280;36499;46.484;13.832;2023-03-14T07:11:39;91738.38;;;11.21;75.40
12471;BME280;36499;46.484;13.832;2023-03-14T07:14:06;91779.34;;;11.52;74.92
12471;BME280;36499;46.484;13.832;2023-03-14T07:16:35;91745.09;;;11.44;76.42
12471;BME280;36499;46.484;13.832;2023-03-14T07:19:02;91753.47;;;11.14;78.06
12471;BME280;36499;46.484;13.832;2023-03-14T07:21:30;91767.81;;;11.17;78.40
12471;BME280;36499;46.484;13.832;2023-03-14T07:23:58;91766.69;;;11.39;76.86
12471;BME280;36499;46.484;13.832;2023-03-14T07:26:25;91744.84;;;11.50;77.00
12471;BME280;36499;46.484;13.832;2023-03-14T07:28:52;91753.94;;;11.43;78.38
12471;BME280;36499;46.484;13.832;2023-03-14T07:31:19;91742.25;;;11.50;78.05
12471;BME280;36499;46.484;13.832;2023-03-14T07:33:48;91740.94;;;11.48;78.85
12471;BME280;36499;46.484;13.832;2023-03-14T07:36:15;91798.91;;;11.23;80.25
12471;BME280;36499;46.484;13.832;2023-03-14T07:38:42;91817.81;;;11.35;78.75
12471;BME280;36499;46.484;13.832;2023-03-14T07:41:09;91780.03;;;10.84;79.26
12471;BME280;36499;46.484;13.832;2023-03-14T07:43:36;91754.88;;;11.00;79.51
12471;BME280;36499;46.484;13.832;2023-03-14T07:46:04;91759.78;;;11.23;78.54
12471;BME280;36499;46.484;13.832;2023-03-14T07:48:31;91771.75;;;11.19;79.36
12471;BME280;36499;46.484;13.832;2023-03-14T07:51:00;91744.72;;;11.30;78.80
12471;BME280;36499;46.484;13.832;2023-03-14T07:53:27;91755.69;;;11.32;78.97
12471;BME280;36499;46.484;13.832;2023-03-14T07:55:54;91737.66;;;11.26;79.23
12471;BME280;36499;46.484;13.832;2023-03-14T07:58:22;91757.41;;;11.17;79.61
12471;BME280;36499;46.484;13.832;2023-03-14T08:00:49;91747.38;;;11.35;79.41
12471;BME280;36499;46.484;13.832;2023-03-14T08:03:17;91737.66;;;11.31;80.10
12471;BME280;36499;46.484;13.832;2023-03-14T08:05:48;91745.66;;;11.19;77.47
12471;BME280;36499;46.484;13.832;2023-03-14T08:08:18;91754.06;;;11.26;74.01
12471;BME280;36499;46.484;13.832;2023-03-14T08:10:45;91749.28;;;11.50;74.63
12471;BME280;36499;46.484;13.832;2023-03-14T08:13:13;91754.50;;;11.45;74.53
12471;BME280;36499;46.484;13.832;2023-03-14T08:15:41;91806.97;;;11.48;72.76
12471;BME280;36499;46.484;13.832;2023-03-14T08:18:08;91837.59;;;11.31;73.63
12471;BME280;36499;46.484;13.832;2023-03-14T08:20:36;91835.06;;;11.41;73.23
12471;BME280;36499;46.484;13.832;2023-03-14T08:23:03;91869.00;;;11.41;74.06
12471;BME280;36499;46.484;13.832;2023-03-14T08:25:31;91863.25;;;11.39;74.50
12471;BME280;36499;46.484;13.832;2023-03-14T08:27:59;91851.78;;;11.14;75.44
12471;BME280;36499;46.484;13.832;2023-03-14T08:30:26;91842.44;;;11.18;77.42
12471;BME280;36499;46.484;13.832;2023-03-14T08:32:53;91854.91;;;11.11;77.53
12471;BME280;36499;46.484;13.832;2023-03-14T08:35:20;91839.28;;;11.16;76.84
12471;BME280;36499;46.484;13.832;2023-03-14T08:37:47;91840.81;;;11.12;75.88
12471;BME280;36499;46.484;13.832;2023-03-14T08:40:14;91877.03;;;11.08;75.55
12471;BME280;36499;46.484;13.832;2023-03-14T08:42:44;91861.34;;;11.03;75.60
12471;BME280;36499;46.484;13.832;2023-03-14T08:45:15;91870.69;;;10.99;75.88
12471;BME280;36499;46.484;13.832;2023-03-14T08:47:43;91865.94;;;10.96;76.71
12471;BME280;36499;46.484;13.832;2023-03-14T08:50:11;91888.09;;;10.93;76.28
12471;BME280;36499;46.484;13.832;2023-03-14T08:52:38;91873.00;;;10.95;76.02
12471;BME280;36499;46.484;13.832;2023-03-14T08:55:08;91874.69;;;10.85;77.37
12471;BME280;36499;46.484;13.832;2023-03-14T08:57:35;91863.94;;;10.81;78.59
12471;BME280;36499;46.484;13.832;2023-03-14T09:00:06;91862.84;;;10.77;79.06
12471;BME280;36499;46.484;13.832;2023-03-14T09:02:36;91855.31;;;10.76;79.92
12471;BME280;36499;46.484;13.832;2023-03-14T09:05:05;91867.28;;;10.77;79.46
12471;BME280;36499;46.484;13.832;2023-03-14T09:07:32;91869.28;;;10.70;79.64
12471;BME280;36499;46.484;13.832;2023-03-14T09:10:00;91880.13;;;10.62;79.13
12471;BME280;36499;46.484;13.832;2023-03-14T09:12:27;91868.66;;;10.57;79.92
12471;BME280;36499;46.484;13.832;2023-03-14T09:14:54;91864.16;;;10.53;79.43
12471;BME280;36499;46.484;13.832;2023-03-14T09:17:22;91862.19;;;10.43;80.21
12471;BME280;36499;46.484;13.832;2023-03-14T09:19:49;91846.06;;;10.46;80.33
12471;BME280;36499;46.484;13.832;2023-03-14T09:22:17;91843.25;;;10.48;80.35
12471;BME280;36499;46.484;13.832;2023-03-14T09:24:44;91822.09;;;10.44;81.32
12471;BME280;36499;46.484;13.832;2023-03-14T09:27:11;91820.81;;;10.69;80.10
12471;BME280;36499;46.484;13.832;2023-03-14T09:29:38;91834.75;;;10.79;78.86
12471;BME280;36499;46.484;13.832;2023-03-14T09:32:05;91831.56;;;10.77;79.22
12471;BME280;36499;46.484;13.832;2023-03-14T09:34:34;91833.75;;;10.85;77.53
12471;BME280;36499;46.484;13.832;2023-03-14T09:37:01;91826.13;;;10.79;74.41
12471;BME280;36499;46.484;13.832;2023-03-14T09:39:28;91830.63;;;10.83;73.28
12471;BME280;36499;46.484;13.832;2023-03-14T09:41:58;91837.38;;;10.84;73.26
12471;BME280;36499;46.484;13.832;2023-03-14T09:44:32;91821.59;;;10.96;74.04
12471;BME280;36499;46.484;13.832;2023-03-14T09:47:05;91801.75;;;10.90;75.62
12471;BME280;36499;46.484;13.832;2023-03-14T09:49:37;91785.25;;;10.84;74.75
12471;BME280;36499;46.484;13.832;2023-03-14T09:52:13;91790.00;;;10.87;75.60
12471;BME280;36499;46.484;13.832;2023-03-14T09:54:46;91834.47;;;10.81;74.90
12471;BME280;36499;46.484;13.832;2023-03-14T09:57:17;91827.72;;;10.36;77.83
12471;BME280;36499;46.484;13.832;2023-03-14T09:59:47;91831.16;;;10.20;79.28
12471;BME280;36499;46.484;13.832;2023-03-14T10:02:19;91862.09;;;10.17;80.24
12471;BME280;36499;46.484;13.832;2023-03-14T10:04:49;91840.78;;;10.20;80.21
12471;BME280;36499;46.484;13.832;2023-03-14T10:07:19;91800.78;;;10.26;81.14
12471;BME280;36499;46.484;13.832;2023-03-14T10:09:49;91782.59;;;10.31;80.52
12471;BME280;36499;46.484;13.832;2023-03-14T10:12:17;91796.94;;;10.33;80.48
12471;BME280;36499;46.484;13.832;2023-03-14T10:14:48;91816.31;;;10.21;80.08
12471;BME280;36499;46.484;13.832;2023-03-14T10:17:19;91818.59;;;10.34;79.04
12471;BME280;36499;46.484;13.832;2023-03-14T10:19:56;91799.84;;;10.37;78.63
12471;BME280;36499;46.484;13.832;2023-03-14T10:22:29;91804.53;;;10.35;79.25
12471;BME280;36499;46.484;13.832;2023-03-14T10:25:01;91793.56;;;10.33;79.43
12471;BME280;36499;46.484;13.832;2023-03-14T10:27:32;91806.38;;;10.18;79.45
12471;BME280;36499;46.484;13.832;2023-03-14T10:30:02;91831.41;;;10.19;78.57
12471;BME280;36499;46.484;13.832;2023-03-14T10:32:35;91827.00;;;10.19;79.65
12471;BME280;36499;46.484;13.832;2023-03-14T10:35:18;91798.69;;;10.28;79.89
12471;BME280;36499;46.484;13.832;2023-03-14T10:37:56;91773.22;;;10.13;78.56
12471;BME280;36499;46.484;13.832;2023-03-14T10:40:28;91778.44;;;10.13;79.42
12471;BME280;36499;46.484;13.832;2023-03-14T10:42:59;91771.25;;;9.82;79.33
12471;BME280;36499;46.484;13.832;2023-03-14T10:45:37;91753.69;;;9.89;78.74
12471;BME280;36499;46.484;13.832;2023-03-14T10:48:21;91737.06;;;9.95;79.43
12471;BME280;36499;46.484;13.832;2023-03-14T10:50:56;91729.56;;;10.15;78.71
12471;BME280;36499;46.484;13.832;2023-03-14T10:53:24;91742.78;;;9.92;79.70
12471;BME280;36499;46.484;13.832;2023-03-14T10:55:52;91749.31;;;10.59;77.73
12471;BME280;36499;46.484;13.832;2023-03-14T10:58:26;91748.78;;;10.57;77.53
12471;BME280;36499;46.484;13.832;2023-03-14T11:01:05;91762.56;;;10.85;75.84
12471;BME280;36499;46.484;13.832;2023-03-14T11:03:40;91777.41;;;10.79;75.85
12471;BME280;36499;46.484;13.832;2023-03-14T11:06:18;91773.94;;;10.74;76.72
12471;BME280;36499;46.484;13.832;2023-03-14T11:08:54;91765.97;;;10.58;75.67
12471;BME280;36499;46.484;13.832;2023-03-14T11:11:29;91780.16;;;10.24;78.29
12471;BME280;36499;46.484;13.832;2023-03-14T11:14:08;91790.00;;;10.66;76.50
12471;BME280;36499;46.484;13.832;2023-03-14T11:16:53;91796.22;;;10.59;75.75
12471;BME280;36499;46.484;13.832;2023-03-14T11:19:42;91773.34;;;10.67;74.94
12471;BME280;36499;46.484;13.832;2023-03-14T11:22:21;91781.25;;;10.77;74.77
12471;BME280;36499;46.484;13.832;2023-03-14T11:25:18;91774.47;;;10.49;76.52
12471;BME280;36499;46.484;13.832;2023-03-14T11:27:56;91776.38;;;10.58;76.60
12471;BME280;36499;46.484;13.832;2023-03-14T11:30:35;91777.53;;;10.68;76.31
12471;BME280;36499;46.484;13.832;2023-03-14T11:33:14;91781.53;;;10.75;76.72
12471;BME280;36499;46.484;13.832;2023-03-14T11:35:47;91765.63;;;10.77;77.41
12471;BME280;36499;46.484;13.832;2023-03-14T11:38:34;91745.97;;;10.64;77.42
12471;BME280;36499;46.484;13.832;2023-03-14T11:41:10;91732.22;;;10.74;77.50
12471;BME280;36499;46.484;13.832;2023-03-14T11:43:46;91722.09;;;10.77;77.77
12471;BME280;36499;46.484;13.832;2023-03-14T11:46:19;91716.59;;;10.47;78.91
12471;BME280;36499;46.484;13.832;2023-03-14T11:49:00;91719.53;;;10.29;79.80
12471;BME280;36499;46.484;13.832;2023-03-14T11:51:32;91706.22;;;10.25;80.40
12471;BME280;36499;46.484;13.832;2023-03-14T11:54:14;91708.56;;;10.05;81.19
12471;BME280;36499;46.484;13.832;2023-03-14T11:56:50;91724.75;;;10.29;80.59
12471;BME280;36499;46.484;13.832;2023-03-14T11:59:23;91717.53;;;10.14;81.00
12471;BME280;36499;46.484;13.832;2023-03-14T12:01:56;91725.31;;;10.31;80.33
12471;BME280;36499;46.484;13.832;2023-03-14T12:04:51;91728.72;;;10.36;79.67
12471;BME280;36499;46.484;13.832;2023-03-14T12:07:29;91730.78;;;10.12;79.93
12471;BME280;36499;46.484;13.832;2023-03-14T12:10:03;91732.06;;;10.10;79.70
12471;BME280;36499;46.484;13.832;2023-03-14T12:12:31;91740.03;;;9.82;81.00
12471;BME280;36499;46.484;13.832;2023-03-14T12:15:01;91737.97;;;9.84;80.59
12471;BME280;36499;46.484;13.832;2023-03-14T12:17:37;91747.69;;;9.50;83.16
12471;BME280;36499;46.484;13.832;2023-03-14T12:20:17;91742.56;;;9.22;83.45
12471;BME280;36499;46.484;13.832;2023-03-14T12:22:48;91749.97;;;9.46;82.19
12471;BME280;36499;46.484;13.832;2023-03-14T12:25:20;91745.91;;;9.55;81.58
12471;BME280;36499;46.484;13.832;2023-03-14T12:28:16;91753.09;;;9.48;80.43
12471;BME280;36499;46.484;13.832;2023-03-14T12:30:44;91746.81;;;9.44;79.67
12471;BME280;36499;46.484;13.832;2023-03-14T12:33:28;91744.38;;;9.54;79.52
12471;BME280;36499;46.484;13.832;2023-03-14T12:36:51;91744.97;;;9.61;78.41
12471;BME280;36499;46.484;13.832;2023-03-14T12:39:33;91744.63;;;9.75;78.31
12471;BME280;36499;46.484;13.832;2023-03-14T12:42:10;91741.59;;;9.83;78.44
12471;BME280;36499;46.484;13.832;2023-03-14T12:44:44;91741.31;;;9.79;78.64
12471;BME280;36499;46.484;13.832;2023-03-14T12:50:46;91730.84;;;9.96;78.31
12471;BME280;36499;46.484;13.832;2023-03-14T12:54:07;91716.78;;;9.97;77.55
12471;BME280;36499;46.484;13.832;2023-03-14T12:57:01;91721.03;;;10.03;76.62
12471;BME280;36499;46.484;13.832;2023-03-14T12:59:35;91710.44;;;10.09;77.21
12471;BME280;36499;46.484;13.832;2023-03-14T13:02:20;91713.94;;;10.15;76.76
12471;BME280;36499;46.484;13.832;2023-03-14T13:04:51;91717.34;;;10.21;77.06
12471;BME280;36499;46.484;13.832;2023-03-14T13:08:05;91715.25;;;10.18;77.49
12471;BME280;36499;46.484;13.832;2023-03-14T13:10:42;91711.34;;;10.20;77.17
12471;BME280;36499;46.484;13.832;2023-03-14T13:13:20;91717.94;;;10.28;78.09